DRRD weather

Dosso Airport
Dosso, Dosso Region, Niger

Public forecast

Using degrees Celsius for public forecast. Weather courtesy of forecast.io.

METAR (pilot weather report)

Closest report is Diori Hamani International Airport, 66.0 nm (122.2 km) WNW. Retrieved 2019/02/16 13:00 UTC (39 minutes ago):

DRRN 161300Z 10012KT 070V140 4000 DU NSC 30/M08 Q1015 NOSIG

TAF (pilot weather forecast)

Closest forecast is Diori Hamani International Airport, 66.0 nm (122.2 km) WNW. Retrieved 2019/02/16 12:21 UTC (1 hour ago):

TAF DRRN 161100Z 1612/1718 08010KT 4500 DU NSC TEMPO 1617/1621 2500 TEMPO 1608/1611 08020KT 2000 BLDU